createdAt,value
2019-02-26T00:01:07.649Z,2.87
2019-02-26T00:04:11.099Z,2.87
2019-02-26T00:07:18.221Z,3.12
2019-02-26T00:10:24.596Z,3.00
2019-02-26T00:13:27.099Z,3.17
2019-02-26T00:16:35.355Z,3.00
2019-02-26T00:19:35.589Z,3.25
2019-02-26T00:22:41.098Z,2.95
2019-02-26T00:25:44.441Z,3.77
2019-02-26T00:28:47.914Z,3.22
2019-02-26T00:31:52.934Z,2.67
2019-02-26T00:34:59.621Z,3.85
2019-02-26T00:38:03.126Z,3.35
2019-02-26T00:41:06.635Z,3.22
2019-02-26T00:44:11.166Z,3.12
2019-02-26T00:47:14.657Z,3.27
2019-02-26T00:50:18.149Z,3.52
2019-02-26T00:53:23.641Z,3.85
2019-02-26T00:56:29.820Z,3.30
2019-02-26T00:59:36.394Z,3.45
2019-02-26T01:02:39.325Z,3.33
2019-02-26T01:05:43.627Z,3.27
2019-02-26T01:08:47.989Z,3.50
2019-02-26T01:11:51.965Z,3.17
2019-02-26T01:14:56.657Z,3.00
2019-02-26T01:18:01.414Z,3.20
2019-02-26T01:21:05.344Z,4.08
2019-02-26T01:24:08.862Z,3.10
2019-02-26T01:27:12.349Z,3.17
2019-02-26T01:30:21.336Z,3.25
2019-02-26T01:33:22.293Z,3.40
2019-02-26T01:36:26.375Z,3.77
2019-02-26T01:39:29.839Z,3.65
2019-02-26T01:42:33.343Z,4.00
2019-02-26T01:45:36.941Z,3.20
2019-02-26T01:48:41.295Z,3.30
2019-02-26T01:51:47.373Z,3.70
2019-02-26T01:54:53.343Z,4.03
2019-02-26T01:57:58.703Z,4.03
2019-02-26T02:01:01.914Z,3.58
2019-02-26T02:04:08.218Z,3.62
2019-02-26T02:07:11.914Z,3.20
2019-02-26T02:10:15.396Z,3.90
2019-02-26T02:13:19.859Z,3.47
2019-02-26T02:16:24.195Z,3.60
2019-02-26T02:19:30.195Z,4.40
2019-02-26T02:22:35.259Z,3.33
2019-02-26T02:25:40.794Z,3.52
2019-02-26T02:28:45.427Z,3.50
2019-02-26T02:31:48.912Z,3.37
2019-02-26T02:34:52.432Z,3.80
2019-02-26T02:37:57.073Z,3.50
2019-02-26T02:41:01.073Z,4.03
2019-02-26T02:44:04.561Z,3.70
2019-02-26T02:47:09.352Z,3.70
2019-02-26T02:50:15.105Z,4.00
2019-02-26T02:53:21.038Z,3.75
2019-02-26T02:56:24.922Z,3.72
2019-02-26T02:59:30.890Z,3.55
2019-02-26T03:02:37.759Z,4.05
2019-02-26T03:05:41.312Z,3.62
2019-02-26T03:08:45.214Z,3.62
2019-02-26T03:11:52.535Z,3.83
2019-02-26T03:14:56.364Z,3.50
2019-02-26T03:18:00.100Z,3.90
2019-02-26T03:21:04.855Z,3.87
2019-02-26T03:24:10.463Z,3.43
2019-02-26T03:27:13.633Z,3.57
2019-02-26T03:30:26.295Z,3.62
2019-02-26T03:33:24.434Z,3.67
2019-02-26T03:36:28.042Z,3.33
2019-02-26T03:39:31.554Z,3.63
2019-02-26T03:42:36.477Z,3.60
2019-02-26T03:45:40.278Z,3.60
2019-02-26T03:48:43.739Z,3.90
2019-02-26T03:51:47.384Z,3.60
2019-02-26T03:54:50.871Z,3.80
2019-02-26T03:57:56.638Z,3.50
2019-02-26T04:01:04.521Z,3.55
2019-02-26T04:04:05.493Z,3.70
2019-02-26T04:07:10.645Z,3.35
2019-02-26T04:10:14.357Z,3.60
2019-02-26T04:13:17.826Z,3.70
2019-02-26T04:16:21.343Z,3.70
2019-02-26T04:19:26.753Z,3.27
2019-02-26T04:22:39.228Z,3.70
2019-02-26T04:26:11.054Z,3.77
2019-02-26T04:29:52.894Z,3.33
2019-02-26T04:33:32.906Z,3.70
2019-02-26T04:37:30.722Z,4.00
2019-02-26T04:41:17.950Z,3.67
2019-02-26T04:44:50.055Z,3.30
2019-02-26T04:47:54.201Z,3.65
2019-02-26T04:50:56.361Z,3.63
2019-02-26T04:54:02.009Z,3.40
2019-02-26T04:57:05.238Z,3.80
2019-02-26T05:00:10.516Z,3.50
2019-02-26T05:03:16.439Z,3.60
2019-02-26T05:06:19.191Z,3.55
2019-02-26T05:09:27.277Z,4.13
2019-02-26T05:12:34.149Z,2.98
2019-02-26T05:15:36.259Z,3.93
2019-02-26T05:18:40.131Z,3.63
2019-02-26T05:21:43.684Z,3.70
2019-02-26T05:24:48.254Z,3.52
2019-02-26T05:27:52.501Z,3.50
2019-02-26T05:30:55.995Z,3.67
2019-02-26T05:34:00.077Z,3.67
2019-02-26T05:37:04.802Z,3.72
2019-02-26T05:40:12.622Z,3.33
2019-02-26T05:43:14.332Z,3.90
2019-02-26T05:46:19.538Z,3.62
2019-02-26T05:49:23.195Z,3.50
2019-02-26T05:52:27.234Z,4.30
2019-02-26T05:55:32.156Z,3.80
2019-02-26T05:58:36.748Z,3.50
2019-02-26T06:01:43.704Z,3.70
2019-02-26T06:04:48.274Z,3.67
2019-02-26T06:07:52.777Z,3.37
2019-02-26T06:10:56.478Z,3.42
2019-02-26T06:14:03.995Z,4.47
2019-02-26T06:17:07.182Z,3.40
2019-02-26T06:20:13.875Z,3.40
2019-02-26T06:23:17.436Z,3.50
2019-02-26T06:26:21.014Z,3.70
2019-02-26T06:29:27.235Z,3.87
2019-02-26T06:32:32.307Z,3.70
2019-02-26T06:35:36.013Z,3.67
2019-02-26T06:38:41.495Z,3.47
2019-02-26T06:41:46.844Z,3.50
2019-02-26T06:44:51.504Z,3.90
2019-02-26T06:47:56.384Z,3.57
2019-02-26T06:51:02.182Z,3.37
2019-02-26T06:54:05.753Z,3.12
2019-02-26T06:57:10.282Z,3.73
2019-02-26T07:00:16.240Z,3.80
2019-02-26T07:03:19.750Z,3.27
2019-02-26T07:06:25.497Z,3.73
2019-02-26T07:09:29.643Z,3.60
2019-02-26T07:12:33.118Z,3.25
2019-02-26T07:15:37.648Z,3.57
2019-02-26T07:18:41.160Z,3.80
2019-02-26T07:21:45.593Z,3.90
2019-02-26T07:24:51.947Z,4.10
2019-02-26T07:27:58.058Z,3.33
2019-02-26T07:31:02.693Z,3.53
2019-02-26T07:34:06.837Z,3.57
2019-02-26T07:37:11.688Z,3.43
2019-02-26T07:40:16.346Z,3.62
2019-02-26T07:43:22.632Z,3.62
2019-02-26T07:46:26.388Z,3.37
2019-02-26T07:49:29.874Z,3.70
2019-02-26T07:52:33.387Z,17.03
2019-02-26T07:55:38.192Z,21.57
2019-02-26T07:58:43.110Z,11.47
2019-02-26T08:01:47.881Z,11.05
2019-02-26T08:04:52.099Z,14.78
2019-02-26T08:07:56.554Z,13.93
2019-02-26T08:11:00.432Z,16.67
2019-02-26T08:14:04.012Z,10.38
2019-02-26T08:17:07.551Z,11.05
2019-02-26T08:20:14.835Z,11.15
2019-02-26T08:23:19.868Z,11.00
2019-02-26T08:26:24.432Z,11.30
2019-02-26T08:29:31.308Z,7.72
2019-02-26T08:32:34.452Z,8.88
2019-02-26T08:35:37.992Z,12.00
2019-02-26T08:38:41.567Z,8.95
2019-02-26T08:42:04.760Z,9.18
2019-02-26T08:45:12.472Z,7.78
2019-02-26T08:48:19.717Z,10.15
2019-02-26T08:51:22.765Z,8.43
2019-02-26T08:54:28.415Z,8.73
2019-02-26T08:57:31.759Z,9.20
2019-02-26T09:00:35.243Z,8.18
2019-02-26T09:03:40.938Z,9.20
2019-02-26T09:06:44.413Z,10.85
2019-02-26T09:09:49.900Z,7.33
2019-02-26T09:12:53.474Z,8.13
2019-02-26T09:15:58.784Z,8.45
2019-02-26T09:19:02.489Z,7.22
2019-02-26T09:22:09.679Z,7.35
2019-02-26T09:25:11.542Z,5.83
2019-02-26T09:28:15.245Z,6.72
2019-02-26T09:31:18.845Z,7.53
2019-02-26T09:34:25.964Z,7.72
2019-02-26T09:37:27.523Z,5.08
2019-02-26T09:40:34.246Z,7.75
2019-02-26T09:43:38.639Z,6.50
2019-02-26T09:46:43.846Z,7.80
2019-02-26T09:49:47.802Z,7.87
2019-02-26T09:52:55.134Z,10.53
2019-02-26T09:55:57.510Z,6.95
2019-02-26T09:59:02.461Z,6.60
2019-02-26T10:02:06.366Z,5.28
2019-02-26T10:05:11.653Z,4.80
2019-02-26T10:08:17.339Z,5.80
2019-02-26T10:11:21.398Z,5.20
2019-02-26T10:14:26.952Z,6.33
2019-02-26T10:17:33.448Z,6.15
2019-02-26T10:20:36.374Z,4.53
2019-02-26T10:23:39.885Z,5.65
2019-02-26T10:26:43.417Z,5.90
2019-02-26T10:29:49.955Z,5.40
2019-02-26T10:32:53.676Z,6.72
2019-02-26T10:35:57.169Z,4.83
2019-02-26T10:39:02.803Z,8.70
2019-02-26T10:42:07.213Z,7.03
2019-02-26T10:45:10.833Z,5.90
2019-02-26T10:48:18.559Z,6.90
2019-02-26T10:51:26.021Z,8.10
2019-02-26T10:54:25.221Z,6.47
2019-02-26T10:57:30.970Z,5.12
2019-02-26T11:00:37.540Z,5.53
2019-02-26T11:03:41.662Z,4.33
2019-02-26T11:06:46.881Z,4.65
2019-02-26T11:09:53.009Z,5.47
2019-02-26T11:12:58.653Z,5.28
2019-02-26T11:16:02.999Z,6.40
2019-02-26T11:19:07.508Z,4.90
2019-02-26T11:22:11.799Z,6.15
2019-02-26T11:25:17.929Z,7.20
2019-02-26T11:28:20.836Z,6.70
2019-02-26T11:31:25.655Z,5.45
2019-02-26T11:34:31.474Z,5.17
2019-02-26T11:37:34.489Z,4.12
2019-02-26T11:40:38.192Z,6.03
2019-02-26T11:43:42.105Z,10.13
2019-02-26T11:46:46.745Z,5.25
2019-02-26T11:49:52.078Z,7.42
2019-02-26T11:52:55.622Z,5.70
2019-02-26T11:56:00.074Z,9.48
2019-02-26T11:59:08.681Z,5.72
2019-02-26T12:02:11.646Z,5.70
2019-02-26T12:05:16.190Z,6.90
2019-02-26T12:08:22.339Z,6.60
2019-02-26T12:11:25.034Z,7.72
2019-02-26T12:14:29.538Z,4.90
2019-02-26T12:17:34.683Z,5.12
2019-02-26T12:20:40.495Z,5.67
2019-02-26T12:23:44.595Z,6.35
2019-02-26T12:26:50.001Z,5.55
2019-02-26T12:29:54.584Z,4.17
2019-02-26T12:32:58.128Z,5.90
2019-02-26T12:36:05.192Z,6.90
2019-02-26T12:39:08.997Z,4.97
2019-02-26T12:42:13.978Z,5.75
2019-02-26T12:45:17.876Z,6.58
2019-02-26T12:48:22.842Z,5.03
2019-02-26T12:51:28.091Z,7.05
2019-02-26T12:54:33.484Z,5.42
2019-02-26T12:57:39.237Z,3.75
2019-02-26T13:00:42.751Z,4.70
2019-02-26T13:03:51.002Z,3.37
2019-02-26T13:06:51.992Z,3.58
2019-02-26T13:10:02.751Z,4.08
2019-02-26T13:13:07.810Z,4.37
2019-02-26T13:16:09.469Z,5.37
2019-02-26T13:19:12.987Z,3.27
2019-02-26T13:22:20.268Z,2.90
2019-02-26T13:25:26.865Z,5.08
2019-02-26T13:31:37.061Z,6.12
2019-02-26T13:34:38.982Z,5.50
2019-02-26T13:37:42.572Z,3.85
2019-02-26T13:40:46.150Z,4.53
2019-02-26T13:43:49.785Z,4.25
2019-02-26T13:46:54.318Z,3.65
2019-02-26T13:49:57.878Z,4.25
2019-02-26T13:53:01.515Z,5.92
2019-02-26T13:56:05.017Z,4.22
2019-02-26T13:59:08.646Z,3.20
2019-02-26T14:02:13.268Z,2.85
2019-02-26T14:05:17.797Z,6.22
2019-02-26T14:08:21.503Z,5.10
2019-02-26T14:11:25.003Z,3.87
2019-02-26T14:14:28.484Z,4.95
2019-02-26T14:17:31.994Z,5.78
2019-02-26T14:20:35.473Z,3.02
2019-02-26T14:23:38.984Z,5.47
2019-02-26T14:26:42.481Z,2.70
2019-02-26T14:29:46.514Z,3.27
2019-02-26T14:32:50.135Z,2.75
2019-02-26T14:35:53.600Z,2.90
2019-02-26T14:38:57.135Z,3.87
2019-02-26T14:42:00.854Z,2.45
2019-02-26T14:45:06.332Z,2.98
2019-02-26T14:48:10.940Z,5.37
2019-02-26T14:51:14.712Z,4.40
2019-02-26T14:54:18.295Z,6.03
2019-02-26T14:57:21.807Z,3.92
2019-02-26T15:00:27.501Z,3.65
2019-02-26T15:03:31.047Z,3.40
2019-02-26T15:06:34.556Z,5.42
2019-02-26T15:09:38.078Z,3.65
2019-02-26T15:12:41.545Z,2.42
2019-02-26T15:15:45.306Z,2.87
2019-02-26T15:18:48.767Z,4.00
2019-02-26T15:21:52.275Z,3.37
2019-02-26T15:24:55.796Z,4.35
2019-02-26T15:28:04.913Z,2.87
2019-02-26T15:31:05.803Z,3.47
2019-02-26T15:34:09.343Z,2.52
2019-02-26T15:37:12.864Z,6.50
2019-02-26T15:40:16.379Z,5.03
2019-02-26T15:43:19.835Z,4.87
2019-02-26T15:46:24.555Z,5.20
2019-02-26T15:49:29.197Z,3.77
2019-02-26T15:52:33.492Z,3.17
2019-02-26T15:55:37.387Z,2.62
2019-02-26T15:58:41.038Z,3.67
2019-02-26T16:01:44.552Z,4.12
2019-02-26T16:04:48.068Z,2.15
2019-02-26T16:07:51.640Z,2.47
2019-02-26T16:10:57.505Z,2.47
2019-02-26T16:14:00.998Z,3.15
2019-02-26T16:17:06.643Z,2.60
2019-02-26T16:20:12.627Z,2.33
2019-02-26T16:23:17.035Z,2.62
2019-02-26T16:26:20.561Z,2.12
2019-02-26T16:29:24.130Z,4.15
2019-02-26T16:32:27.731Z,3.05
2019-02-26T16:35:31.428Z,2.67
2019-02-26T16:38:34.982Z,3.27
2019-02-26T16:41:39.005Z,2.30
2019-02-26T16:44:42.557Z,4.17
2019-02-26T16:47:48.679Z,3.40
2019-02-26T16:50:54.492Z,5.62
2019-02-26T16:53:58.007Z,3.02
2019-02-26T16:57:01.488Z,3.17
2019-02-26T17:00:05.291Z,1.92
2019-02-26T17:03:08.907Z,3.50
2019-02-26T17:06:12.887Z,3.00
2019-02-26T17:09:16.503Z,3.08
2019-02-26T17:12:20.103Z,1.98
2019-02-26T17:15:26.938Z,2.70
2019-02-26T17:18:30.693Z,1.72
2019-02-26T17:21:34.275Z,1.82
2019-02-26T17:24:37.907Z,2.87
2019-02-26T17:27:41.650Z,1.75
2019-02-26T17:30:45.232Z,3.20
2019-02-26T17:33:48.807Z,2.10
2019-02-26T17:36:52.256Z,4.22
2019-02-26T17:39:55.810Z,2.70
2019-02-26T17:42:59.321Z,1.42
2019-02-26T17:46:02.934Z,2.20
2019-02-26T17:49:06.575Z,3.58
2019-02-26T17:52:10.032Z,1.55
2019-02-26T17:55:16.392Z,3.80
2019-02-26T17:58:19.904Z,3.12
2019-02-26T18:01:23.425Z,1.98
2019-02-26T18:04:27.489Z,1.50
2019-02-26T18:07:31.216Z,1.70
2019-02-26T18:10:36.581Z,1.72
2019-02-26T18:13:40.120Z,3.92
2019-02-26T18:16:43.799Z,1.80
2019-02-26T18:19:49.434Z,1.45
2019-02-26T18:22:53.442Z,1.67
2019-02-26T18:25:56.958Z,3.95
2019-02-26T18:29:00.441Z,1.85
2019-02-26T18:32:03.942Z,1.55
2019-02-26T18:35:07.388Z,1.75
2019-02-26T18:38:10.935Z,2.98
2019-02-26T18:41:15.481Z,1.95
2019-02-26T18:44:20.522Z,1.30
2019-02-26T18:47:24.339Z,2.40
2019-02-26T18:50:28.739Z,1.40
2019-02-26T18:53:32.797Z,1.60
2019-02-26T18:56:38.232Z,1.40
2019-02-26T18:59:41.603Z,2.67
2019-02-26T19:02:45.104Z,2.35
2019-02-26T19:05:54.047Z,1.77
2019-02-26T19:08:54.976Z,2.72
2019-02-26T19:11:58.468Z,1.70
2019-02-26T19:15:01.970Z,1.72
2019-02-26T19:18:05.479Z,1.50
2019-02-26T19:21:09.986Z,1.45
2019-02-26T19:24:13.498Z,2.25
2019-02-26T19:27:19.503Z,1.70
2019-02-26T19:30:23.472Z,3.15
2019-02-26T19:33:27.129Z,1.52
2019-02-26T19:36:30.778Z,1.50
2019-02-26T19:39:34.319Z,1.57
2019-02-26T19:42:37.728Z,1.42
2019-02-26T19:45:44.011Z,1.82
2019-02-26T19:48:46.658Z,1.50
2019-02-26T19:51:50.148Z,1.77
2019-02-26T19:54:54.680Z,1.30
2019-02-26T19:57:58.180Z,1.47
2019-02-26T20:01:01.658Z,1.40
2019-02-26T20:04:05.137Z,1.95
2019-02-26T20:07:08.670Z,1.45
2019-02-26T20:10:15.029Z,1.50
2019-02-26T20:13:17.957Z,1.95
2019-02-26T20:16:21.516Z,4.03
2019-02-26T20:19:26.138Z,1.57
2019-02-26T20:22:30.566Z,1.77
2019-02-26T20:25:34.804Z,1.62
2019-02-26T20:28:38.325Z,1.85
2019-02-26T20:31:41.795Z,1.32
2019-02-26T20:34:45.367Z,1.37
2019-02-26T20:37:48.991Z,1.60
2019-02-26T20:40:52.518Z,1.50
2019-02-26T20:43:56.047Z,1.22
2019-02-26T20:46:59.515Z,1.57
2019-02-26T20:50:03.467Z,3.58
2019-02-26T20:53:07.116Z,3.47
2019-02-26T20:56:10.649Z,3.87
2019-02-26T20:59:17.620Z,3.67
2019-02-26T21:02:19.469Z,1.65
2019-02-26T21:05:24.886Z,2.87
2019-02-26T21:08:30.742Z,3.00
2019-02-26T21:11:33.638Z,2.33
2019-02-26T21:14:41.057Z,1.67
2019-02-26T21:17:42.909Z,1.50
2019-02-26T21:20:46.405Z,1.52
2019-02-26T21:23:50.029Z,1.72
2019-02-26T21:26:53.623Z,2.10
2019-02-26T21:29:58.122Z,1.77
2019-02-26T21:33:01.649Z,2.00
2019-02-26T21:36:06.162Z,1.62
2019-02-26T21:39:11.599Z,1.70
2019-02-26T21:42:16.220Z,1.90
2019-02-26T21:45:19.736Z,2.02
2019-02-26T21:48:23.200Z,1.62
2019-02-26T21:51:26.633Z,1.95
2019-02-26T21:54:31.262Z,1.62
2019-02-26T21:57:34.769Z,1.92
2019-02-26T22:00:39.025Z,2.12
2019-02-26T22:03:43.293Z,1.92
2019-02-26T22:06:47.935Z,2.02
2019-02-26T22:09:52.398Z,2.25
2019-02-26T22:12:56.752Z,1.80
2019-02-26T22:16:00.883Z,1.80
2019-02-26T22:19:04.737Z,1.75
2019-02-26T22:22:10.747Z,2.42
2019-02-26T22:25:17.124Z,2.20
2019-02-26T22:28:19.599Z,1.70
2019-02-26T22:31:23.111Z,3.08
2019-02-26T22:34:26.601Z,2.17
2019-02-26T22:37:30.095Z,2.10
2019-02-26T22:40:34.247Z,2.52
2019-02-26T22:43:37.922Z,2.35
2019-02-26T22:46:41.527Z,2.22
2019-02-26T22:49:45.113Z,1.98
2019-02-26T22:52:48.690Z,2.08
2019-02-26T22:55:52.136Z,1.82
2019-02-26T22:58:55.637Z,2.02
2019-02-26T23:01:59.139Z,1.95
2019-02-26T23:05:02.637Z,2.47
2019-02-26T23:08:09.584Z,2.35
2019-02-26T23:11:13.124Z,3.12
2019-02-26T23:14:16.834Z,2.17
2019-02-26T23:17:24.714Z,1.80
2019-02-26T23:20:26.694Z,2.52
2019-02-26T23:23:30.204Z,2.30
2019-02-26T23:26:33.907Z,2.30
2019-02-26T23:29:43.294Z,2.12
2019-02-26T23:32:46.848Z,2.05
2019-02-26T23:35:54.817Z,2.40
2019-02-26T23:38:55.781Z,2.40
2019-02-26T23:41:59.288Z,2.65
2019-02-26T23:45:02.743Z,2.20
2019-02-26T23:48:08.040Z,2.27
2019-02-26T23:51:11.529Z,2.00
2019-02-26T23:54:15.046Z,2.27
2019-02-26T23:57:18.536Z,2.08
